Time;durP1;ratioP1;P1;durP2;ratioP2;P2;SDS_P1;SDS_P2;PMS_P1;PMS_P2;Temp;Humidity;BMP_temperature;BMP_pressure;BME280_temperature;BME280_humidity;BME280_pressure;Samples;Min_cycle;Max_cycle;Signal;HPM_P1;HPM_P2
2022/09/20 00:00:27;;;;;;;4.53;1.13;;;;;;;12.01;100.00;102268.28;5053570;28;20477;-69
2022/09/20 00:02:52;;;;;;;7.30;1.63;;;;;;;12.03;100.00;102275.41;5041818;28;20033;-69
2022/09/20 00:05:17;;;;;;;4.55;1.52;;;;;;;12.03;100.00;102270.13;5056880;28;20091;-68
2022/09/20 00:07:44;;;;;;;7.85;1.10;;;;;;;12.01;100.00;102263.00;5069272;28;20051;-69
2022/09/20 00:10:09;;;;;;;8.73;1.45;;;;;;;12.01;100.00;102260.38;5087842;28;20419;-69
2022/09/20 00:12:34;;;;;;;7.53;1.40;;;;;;;11.99;100.00;102255.00;5088793;28;20031;-68
2022/09/20 00:15:00;;;;;;;8.13;1.30;;;;;;;11.98;100.00;102261.16;5075493;28;20027;-68
2022/09/20 00:17:25;;;;;;;6.57;1.55;;;;;;;11.99;100.00;102265.56;5076458;28;20028;-70
2022/09/20 00:19:50;;;;;;;6.32;1.48;;;;;;;12.03;100.00;102267.47;5086953;28;20108;-68
2022/09/20 00:22:16;;;;;;;6.35;1.40;;;;;;;12.06;100.00;102275.50;5093662;28;20030;-68
2022/09/20 00:24:41;;;;;;;5.28;1.80;;;;;;;12.07;100.00;102287.84;5093774;28;20472;-69
2022/09/20 00:27:06;;;;;;;5.18;1.38;;;;;;;12.07;100.00;102287.84;5074361;28;20384;-69
2022/09/20 00:29:32;;;;;;;12.02;1.33;;;;;;;12.06;100.00;102291.31;5072609;28;20025;-69
2022/09/20 00:31:57;;;;;;;8.80;1.65;;;;;;;11.99;100.00;102281.38;5074151;28;20025;-68
2022/09/20 00:37:06;;;;;;;11.13;2.65;;;;;;;11.91;100.00;102269.66;5084212;28;20449;-68
2022/09/20 00:39:31;;;;;;;9.40;1.65;;;;;;;11.87;100.00;102258.13;5061343;28;20020;-69
2022/09/20 00:41:57;;;;;;;7.22;1.75;;;;;;;11.87;100.00;102259.84;5086960;28;20036;-69
2022/09/20 00:44:44;;;;;;;5.88;1.38;;;;;;;11.87;100.00;102251.94;5075764;28;20051;-68
2022/09/20 00:47:18;;;;;;;7.78;1.38;;;;;;;11.85;100.00;102243.09;5072091;28;20082;-67
2022/09/20 00:49:44;;;;;;;7.25;1.23;;;;;;;11.76;100.00;102239.28;5089199;28;20459;-68
2022/09/20 00:52:09;;;;;;;7.57;1.55;;;;;;;11.76;100.00;102241.94;5083924;28;20028;-69
2022/09/20 00:54:35;;;;;;;5.50;1.48;;;;;;;11.74;100.00;102246.22;5077455;28;20024;-69
2022/09/20 00:57:01;;;;;;;6.20;1.38;;;;;;;11.70;100.00;102254.88;5072930;28;20069;-68
2022/09/20 00:59:31;;;;;;;6.57;1.50;;;;;;;11.72;100.00;102244.38;5083384;28;20031;-67
2022/09/20 01:02:07;;;;;;;10.60;1.60;;;;;;;11.70;100.00;102244.34;5073613;28;20036;-67
2022/09/20 01:04:37;;;;;;;9.02;1.73;;;;;;;11.65;100.00;102243.28;5076803;28;20024;-68
2022/09/20 01:07:06;;;;;;;6.70;2.00;;;;;;;11.64;100.00;102249.41;5078969;28;20107;-68
2022/09/20 01:09:31;;;;;;;3.83;1.38;;;;;;;11.61;100.00;102244.00;5077275;28;20052;-68
2022/09/20 01:12:01;;;;;;;7.30;1.60;;;;;;;11.60;100.00;102252.78;5072843;28;20039;-68
2022/09/20 01:14:26;;;;;;;4.35;1.70;;;;;;;11.63;100.00;102250.25;5076956;28;20028;-68
2022/09/20 01:16:55;;;;;;;9.15;1.40;;;;;;;11.67;100.00;102256.53;5074100;28;20134;-69
2022/09/20 01:19:29;;;;;;;6.60;1.70;;;;;;;11.78;100.00;102258.69;5084684;28;20387;-67
2022/09/20 01:21:55;;;;;;;4.55;1.73;;;;;;;11.81;100.00;102260.53;5084971;28;20038;-68
2022/09/20 01:24:30;;;;;;;6.43;1.77;;;;;;;11.85;100.00;102272.09;5092704;28;20024;-67
2022/09/20 01:27:19;;;;;;;9.65;1.63;;;;;;;11.82;100.00;102272.88;5074849;28;20366;-67
2022/09/20 01:30:01;;;;;;;3.97;1.67;;;;;;;11.79;100.00;102271.03;5079408;28;20477;-68
2022/09/20 01:32:40;;;;;;;6.38;1.60;;;;;;;11.73;100.00;102276.06;5080111;28;20060;-69
2022/09/20 01:35:07;;;;;;;7.82;1.50;;;;;;;11.68;100.00;102260.94;5072775;28;20024;-69
2022/09/20 01:38:07;;;;;;;7.65;1.58;;;;;;;11.71;100.00;102256.69;5074052;28;20040;-68
2022/09/20 01:40:51;;;;;;;6.20;1.42;;;;;;;11.74;100.00;102248.88;5072762;28;20051;-68
2022/09/20 01:43:34;;;;;;;;;;;;;;;11.73;100.00;102251.47;5079639;28;20020;-68
2022/09/20 01:46:13;;;;;;;7.63;1.60;;;;;;;11.71;100.00;102248.78;5076758;28;19922;-68
2022/09/20 01:48:41;;;;;;;7.55;1.83;;;;;;;11.68;100.00;102245.13;5076862;28;20020;-68
2022/09/20 01:51:50;;;;;;;4.65;1.27;;;;;;;11.62;100.00;102240.53;5085804;28;20095;-69
2022/09/20 01:54:47;;;;;;;8.45;1.25;;;;;;;11.56;100.00;102235.06;4985258;28;20084;-69
2022/09/20 01:57:34;;;;;;;9.32;1.50;;;;;;;11.55;100.00;102233.28;5048082;28;20028;-68
2022/09/20 02:00:20;;;;;;;5.68;1.50;;;;;;;11.48;100.00;102233.03;5055012;28;20492;-68
2022/09/20 02:02:48;;;;;;;4.35;1.48;;;;;;;11.42;100.00;102222.31;5060798;28;20379;-68
2022/09/20 02:05:25;;;;;;;8.43;1.23;;;;;;;11.40;100.00;102236.25;5078190;28;20479;-68
2022/09/20 02:08:15;;;;;;;4.88;1.35;;;;;;;11.38;100.00;102235.28;5078873;28;20025;-68
2022/09/20 02:10:56;;;;;;;6.18;1.80;;;;;;;11.42;100.00;102232.84;5071877;28;20052;-68
2022/09/20 02:13:51;;;;;;;4.95;1.48;;;;;;;11.41;100.00;102238.94;5073084;28;20328;-68
2022/09/20 02:16:30;;;;;;;7.38;1.95;;;;;;;11.34;100.00;102236.94;5060020;28;20068;-69
2022/09/20 02:19:24;;;;;;;8.65;2.30;;;;;;;11.34;100.00;102244.84;5088350;28;20040;-68
2022/09/20 02:22:03;;;;;;;5.28;2.10;;;;;;;11.36;100.00;102235.25;5074981;28;20111;-68
2022/09/20 02:24:59;;;;;;;6.95;1.67;;;;;;;11.36;100.00;102237.88;5075223;28;20040;-67
2022/09/20 02:27:53;;;;;;;8.68;1.90;;;;;;;11.38;100.00;102241.50;5079217;28;20162;-68
2022/09/20 02:30:54;;;;;;;5.30;2.15;;;;;;;11.39;100.00;102243.25;5067691;28;20120;-68
2022/09/20 02:33:35;;;;;;;12.95;2.38;;;;;;;11.39;100.00;102247.66;5056302;28;20040;-68
2022/09/20 02:36:37;;;;;;;6.18;1.90;;;;;;;11.38;100.00;102241.50;5088841;28;20106;-67
2022/09/20 02:39:11;;;;;;;6.72;2.00;;;;;;;11.38;100.00;102241.50;5071038;28;20024;-68
2022/09/20 02:42:00;;;;;;;3.75;1.67;;;;;;;11.33;100.00;102236.88;5072137;28;20024;-67
2022/09/20 02:44:38;;;;;;;8.05;1.88;;;;;;;11.33;100.00;102239.50;5073191;28;20059;-67
2022/09/20 02:47:19;;;;;;;10.60;2.08;;;;;;;11.29;100.00;102235.88;5070581;28;20075;-68
2022/09/20 02:49:51;;;;;;;5.78;2.08;;;;;;;11.30;100.00;102237.69;5072469;28;20115;-67
2022/09/20 02:52:31;;;;;;;5.47;2.25;;;;;;;11.28;100.00;102236.72;5072858;28;20100;-68
2022/09/20 02:55:08;;;;;;;3.72;1.92;;;;;;;11.25;100.00;102240.13;5078725;28;20027;-68
2022/09/20 02:58:10;;;;;;;5.72;1.95;;;;;;;11.22;100.00;102241.78;5079744;28;20047;-68
2022/09/20 03:00:52;;;;;;;9.70;2.60;;;;;;;11.23;100.00;102233.00;5085874;28;20089;-68
2022/09/20 03:03:47;;;;;;;8.30;2.72;;;;;;;11.20;100.00;102230.28;5085494;28;20031;-68
2022/09/20 03:06:37;;;;;;;13.15;2.53;;;;;;;11.16;100.00;102233.63;5069121;28;20068;-68
2022/09/20 03:09:24;;;;;;;6.05;2.00;;;;;;;11.12;100.00;102232.63;5077296;28;20064;-69
2022/09/20 03:12:08;;;;;;;9.80;2.50;;;;;;;11.09;100.00;102233.41;5074777;28;20406;-67
2022/09/20 03:14:39;;;;;;;7.75;2.50;;;;;;;11.10;100.00;102235.19;5082750;28;20028;-68
2022/09/20 03:17:35;;;;;;;9.30;2.35;;;;;;;11.09;100.00;102233.41;5073031;28;20037;-68
2022/09/20 03:20:22;;;;;;;11.43;2.30;;;;;;;11.08;100.00;102241.25;5075367;28;20170;-68
2022/09/20 03:22:59;;;;;;;13.93;2.35;;;;;;;11.05;100.00;102236.75;5076193;28;20060;-68
2022/09/20 03:25:53;;;;;;;7.00;2.45;;;;;;;11.06;100.00;102235.94;5077018;28;20028;-68
2022/09/20 03:28:19;;;;;;;11.43;2.33;;;;;;;11.09;100.00;102233.41;5068132;28;20031;-68
2022/09/20 03:31:13;;;;;;;8.10;2.30;;;;;;;11.17;100.00;102236.31;5079422;28;20467;-68
2022/09/20 03:33:59;;;;;;;6.78;2.08;;;;;;;11.16;100.00;102236.28;5084139;28;20442;-67
2022/09/20 03:36:31;;;;;;;8.50;2.40;;;;;;;11.13;100.00;102235.31;5075579;28;20032;-68
2022/09/20 03:39:09;;;;;;;9.82;2.38;;;;;;;11.16;100.00;102244.19;5089025;28;20028;-67
2022/09/20 03:41:59;;;;;;;5.53;2.10;;;;;;;11.23;100.00;102246.19;5074390;28;20028;-68
2022/09/20 03:44:44;;;;;;;6.78;2.30;;;;;;;11.23;100.00;102254.09;5080173;28;20023;-68
2022/09/20 03:47:31;;;;;;;7.07;2.08;;;;;;;11.24;100.00;102255.88;5075655;28;20563;-67
2022/09/20 03:50:18;;;;;;;4.32;1.70;;;;;;;11.28;100.00;102247.25;5078325;28;20032;-67
2022/09/20 03:53:12;;;;;;;5.68;1.92;;;;;;;11.26;100.00;102248.94;5095574;28;20468;-67
2022/09/20 03:55:46;;;;;;;6.45;1.88;;;;;;;11.24;100.00;102253.25;5080561;28;20047;-67
2022/09/20 03:58:17;;;;;;;6.13;2.63;;;;;;;11.24;100.00;102253.25;5082780;28;20423;-69
2022/09/20 04:01:08;;;;;;;9.85;2.55;;;;;;;11.24;100.00;102253.25;5082623;28;20456;-66
2022/09/20 04:03:48;;;;;;;11.30;2.45;;;;;;;11.22;100.00;102257.59;5079856;28;20030;-67
2022/09/20 04:06:36;;;;;;;11.90;2.60;;;;;;;11.20;100.00;102249.59;5075002;28;20094;-67
2022/09/20 04:09:36;;;;;;;8.38;2.53;;;;;;;11.23;100.00;102256.72;5075080;28;20044;-67
2022/09/20 04:12:20;;;;;;;9.13;3.17;;;;;;;11.23;100.00;102262.00;5066694;28;20035;-67
2022/09/20 04:14:54;;;;;;;9.75;2.10;;;;;;;11.19;100.00;102262.72;5062356;28;20032;-68
2022/09/20 04:17:34;;;;;;;9.20;2.30;;;;;;;11.09;100.00;102254.47;5037779;28;20103;-68
2022/09/20 04:20:15;;;;;;;6.68;1.80;;;;;;;11.13;100.00;102259.00;5059346;28;20112;-69
2022/09/20 04:22:43;;;;;;;8.60;2.22;;;;;;;11.17;100.00;102256.50;5067727;28;20047;-69
2022/09/20 04:25:15;;;;;;;8.23;1.98;;;;;;;11.20;100.00;102256.63;5072074;28;20040;-68
2022/09/20 04:27:49;;;;;;;6.82;1.70;;;;;;;11.22;100.00;102254.97;5061148;28;20029;-67
2022/09/20 04:30:19;;;;;;;8.35;1.45;;;;;;;11.26;100.00;102252.47;5054932;28;20027;-68
2022/09/20 04:32:59;;;;;;;9.38;1.88;;;;;;;11.26;100.00;102262.13;5065896;28;20047;-68
2022/09/20 04:38:39;;;;;;;8.13;1.65;;;;;;;11.34;100.00;102251.84;5059047;28;20040;-68
2022/09/20 04:41:18;;;;;;;6.70;1.10;;;;;;;11.36;100.00;102260.72;5054939;28;20036;-68
2022/09/20 04:44:10;;;;;;;4.78;1.63;;;;;;;11.37;100.00;102266.03;5057597;28;20108;-68
2022/09/20 04:46:42;;;;;;;4.72;1.48;;;;;;;11.38;100.00;102267.84;5066658;28;20108;-68
2022/09/20 04:49:33;;;;;;;4.97;1.25;;;;;;;11.39;100.00;102269.59;5055930;28;20055;-68
2022/09/20 04:52:03;;;;;;;8.65;1.30;;;;;;;11.40;100.00;102263.50;5032415;28;20037;-68
2022/09/20 04:54:50;;;;;;;8.13;2.15;;;;;;;11.41;100.00;102267.94;5067320;28;20036;-68
2022/09/20 04:57:54;;;;;;;7.70;1.90;;;;;;;11.40;100.00;102266.16;5065276;28;20477;-68
2022/09/20 05:00:22;;;;;;;6.20;1.15;;;;;;;11.41;100.00;102267.06;5041678;28;20028;-69
2022/09/20 05:03:21;;;;;;;11.50;1.40;;;;;;;11.42;100.00;102263.56;5054307;28;20115;-69
2022/09/20 05:06:22;;;;;;;5.32;1.25;;;;;;;11.42;100.00;102259.19;5033510;28;20063;-68
2022/09/20 05:08:47;;;;;;;7.47;1.40;;;;;;;11.42;100.00;102267.09;5054104;28;20053;-69
2022/09/20 05:11:19;;;;;;;5.47;2.13;;;;;;;11.44;100.00;102268.03;5089153;28;20491;-68
2022/09/20 05:14:11;;;;;;;9.25;2.83;;;;;;;11.41;100.00;102261.78;5076646;28;20020;-68
2022/09/20 05:16:45;;;;;;;6.50;1.30;;;;;;;11.37;100.00;102263.41;5079565;28;20059;-69
2022/09/20 05:19:29;;;;;;;5.90;1.30;;;;;;;11.34;100.00;102265.94;5077075;28;20021;-68
2022/09/20 05:22:12;;;;;;;7.32;1.50;;;;;;;11.33;100.00;102272.03;5053521;28;20051;-69
2022/09/20 05:24:59;;;;;;;6.70;1.38;;;;;;;11.32;100.00;102266.72;5071644;28;20035;-69
2022/09/20 05:27:51;;;;;;;6.45;1.35;;;;;;;11.33;100.00;102268.50;5060365;28;20452;-68
2022/09/20 05:30:36;;;;;;;10.18;2.00;;;;;;;11.35;100.00;102265.06;5072410;28;20036;-70
2022/09/20 05:33:12;;;;;;;7.05;1.63;;;;;;;11.36;100.00;102269.50;5041023;28;20112;-72
2022/09/20 05:36:05;;;;;;;8.13;2.10;;;;;;;11.37;100.00;102271.31;5072762;28;20028;-70
2022/09/20 05:39:09;;;;;;;7.05;1.63;;;;;;;11.39;100.00;102277.50;5058732;28;20119;-72
2022/09/20 05:42:12;;;;;;;10.57;1.92;;;;;;;11.43;100.00;102276.78;5032788;28;20071;-70
2022/09/20 05:44:56;;;;;;;11.80;1.88;;;;;;;11.43;100.00;102281.16;5072841;28;20043;-70
2022/09/20 05:47:43;;;;;;;10.07;2.20;;;;;;;11.44;100.00;102275.94;5071937;28;20024;-74
2022/09/20 05:50:34;;;;;;;2.20;1.50;;;;;;;11.46;100.00;102279.56;5072125;28;20047;-71
2022/09/20 05:53:34;;;;;;;8.18;1.60;;;;;;;11.48;100.00;102285.75;5072371;28;20028;-71
2022/09/20 05:56:02;;;;;;;7.53;1.88;;;;;;;11.50;100.00;102275.28;5046267;28;20056;-71
2022/09/20 05:58:28;;;;;;;4.95;1.92;;;;;;;11.53;100.00;102267.50;5070876;28;20112;-71
2022/09/20 06:01:02;;;;;;;7.40;1.90;;;;;;;11.55;100.00;102280.72;5080709;28;20103;-71
2022/09/20 06:03:44;;;;;;;9.20;2.20;;;;;;;11.57;100.00;102285.22;5069856;28;20040;-71
2022/09/20 06:06:20;;;;;;;4.72;1.80;;;;;;;11.63;100.00;102290.69;5072141;28;20038;-71
2022/09/20 06:08:57;;;;;;;11.68;2.20;;;;;;;11.60;100.00;102285.31;5068674;28;20024;-72
2022/09/20 06:11:56;;;;;;;6.10;2.20;;;;;;;11.62;100.00;102290.63;5050588;28;20114;-79
2022/09/20 06:15:00;;;;;;;7.75;2.63;;;;;;;11.65;100.00;102298.66;5046207;28;20032;-68
2022/09/20 06:17:56;;;;;;;5.15;1.80;;;;;;;11.67;100.00;102299.63;5072240;28;20036;-67
2022/09/20 06:20:48;;;;;;;11.75;2.05;;;;;;;11.70;100.00;102296.19;5044424;28;20538;-67
2022/09/20 06:23:14;;;;;;;5.78;1.98;;;;;;;11.73;100.00;102302.44;5019199;28;20080;-69
2022/09/20 06:26:05;;;;;;;10.40;2.42;;;;;;;11.76;100.00;102297.31;5072910;28;20052;-68
2022/09/20 06:28:42;;;;;;;2.38;1.73;;;;;;;11.81;100.00;102301.00;5054432;28;20111;-69
2022/09/20 06:31:09;;;;;;;9.05;2.10;;;;;;;11.82;100.00;102294.88;5053559;28;20078;-70
2022/09/20 06:34:21;;;;;;;7.85;2.55;;;;;;;11.86;100.00;102305.53;5074795;28;20395;-69
2022/09/20 06:42:37;;;;;;;11.55;2.67;;;;;;;11.92;100.00;102297.81;5074163;28;20399;-68
2022/09/20 06:45:04;;;;;;;5.93;2.20;;;;;;;11.92;100.00;102298.75;5074418;28;20062;-69
2022/09/20 06:47:29;;;;;;;9.05;2.17;;;;;;;11.92;100.00;102298.75;5057431;28;20368;-69
2022/09/20 06:49:55;;;;;;;8.45;2.97;;;;;;;11.94;100.00;102301.44;5071132;28;20013;-70
2022/09/20 06:52:21;;;;;;;8.57;2.88;;;;;;;11.96;100.00;102307.66;5073893;28;20024;-69
2022/09/20 06:54:50;;;;;;;6.10;2.15;;;;;;;11.97;100.00;102306.84;5075981;28;20029;-69
2022/09/20 06:57:21;;;;;;;16.00;2.80;;;;;;;11.99;100.00;102310.41;5075860;28;20507;-69
2022/09/20 06:59:47;;;;;;;9.48;2.40;;;;;;;12.01;100.00;102307.84;5077240;28;20024;-69
2022/09/20 07:02:12;;;;;;;8.10;2.00;;;;;;;12.02;100.00;102305.25;5074988;28;20035;-69
2022/09/20 07:04:37;;;;;;;9.63;1.80;;;;;;;12.03;100.00;102307.06;5071627;28;20119;-71
2022/09/20 07:07:05;;;;;;;6.13;2.00;;;;;;;12.06;100.00;102311.50;5074689;28;20052;-71
2022/09/20 07:09:30;;;;;;;9.55;2.65;;;;;;;12.09;100.00;102301.97;5075856;28;20056;-70
2022/09/20 07:11:58;;;;;;;10.35;2.60;;;;;;;12.10;100.00;102313.41;5074030;28;20038;-70
2022/09/20 07:14:25;;;;;;;9.73;2.38;;;;;;;12.14;100.00;102305.66;5074424;28;20035;-70
2022/09/20 07:16:51;;;;;;;10.32;2.47;;;;;;;12.22;100.00;102307.66;5075659;28;20036;-71
2022/09/20 07:19:16;;;;;;;9.32;1.65;;;;;;;12.26;100.00;102314.84;5065004;28;20204;-71
2022/09/20 07:21:42;;;;;;;7.93;1.77;;;;;;;12.28;100.00;102315.78;5073714;28;20063;-72
2022/09/20 07:24:07;;;;;;;8.38;2.65;;;;;;;12.29;100.00;102317.59;5075009;28;20423;-72
2022/09/20 07:26:32;;;;;;;10.18;2.42;;;;;;;12.34;100.00;102317.72;5074995;28;20055;-73
2022/09/20 07:28:59;;;;;;;7.07;1.92;;;;;;;12.36;100.00;102316.94;5070500;28;20017;-71
2022/09/20 07:31:26;;;;;;;6.78;2.50;;;;;;;12.38;100.00;102315.22;5073916;28;20028;-73
2022/09/20 07:33:52;;;;;;;8.00;2.05;;;;;;;12.40;100.00;102321.47;5074171;28;20051;-73
2022/09/20 07:36:18;;;;;;;7.80;1.52;;;;;;;12.41;100.00;102325.91;5074926;28;20032;-73
2022/09/20 07:38:51;;;;;;;8.10;2.33;;;;;;;12.43;100.00;102334.75;5074992;28;20129;-73
2022/09/20 07:41:18;;;;;;;6.50;1.52;;;;;;;12.48;100.00;102327.91;5074471;28;20034;-73
2022/09/20 07:43:44;;;;;;;4.93;1.33;;;;;;;12.55;100.00;102336.03;5071129;28;20068;-73
2022/09/20 07:46:14;;;;;;;8.82;1.40;;;;;;;12.55;100.00;102333.41;5070189;28;20392;-73
2022/09/20 07:48:40;;;;;;;4.03;0.95;;;;;;;12.60;100.00;102342.34;5073920;28;20028;-73
2022/09/20 07:51:11;;;;;;;2.70;0.98;;;;;;;12.61;100.00;102344.13;5071938;28;20395;-73
2022/09/20 07:53:37;;;;;;;3.80;1.10;;;;;;;12.64;100.00;102344.22;5070386;28;20033;-73
2022/09/20 07:56:08;;;;;;;6.72;1.20;;;;;;;12.64;100.00;102354.78;5062643;28;20032;-73
2022/09/20 07:58:34;;;;;;;4.60;1.27;;;;;;;12.64;100.00;102354.78;5073907;28;20032;-71
2022/09/20 08:01:02;;;;;;;10.07;1.98;;;;;;;12.64;100.00;102354.78;5072682;28;20528;-70
2022/09/20 08:03:29;;;;;;;11.68;3.65;;;;;;;12.69;100.00;102363.75;5072430;28;20035;-70
2022/09/20 08:06:00;;;;;;;8.07;1.10;;;;;;;12.64;100.00;102368.91;5072075;28;20029;-71
2022/09/20 08:08:26;;;;;;;8.70;1.25;;;;;;;12.62;100.00;102372.34;5073123;28;20512;-71
2022/09/20 08:10:54;;;;;;;8.75;1.05;;;;;;;12.68;100.00;102372.53;5072773;28;20472;-72
2022/09/20 08:13:19;;;;;;;5.85;1.00;;;;;;;12.72;100.00;102374.41;5066382;28;20095;-71
2022/09/20 08:15:45;;;;;;;3.97;0.85;;;;;;;12.76;100.00;102367.50;5053772;28;20040;-71
2022/09/20 08:18:10;;;;;;;7.60;0.93;;;;;;;12.82;100.00;102371.25;5073847;28;20039;-71
2022/09/20 08:20:37;;;;;;;3.10;1.17;;;;;;;12.85;100.00;102377.50;5074273;28;20384;-71
2022/09/20 08:23:04;;;;;;;8.93;0.98;;;;;;;12.85;100.00;102373.09;5072547;28;20478;-71
2022/09/20 08:25:29;;;;;;;4.90;0.82;;;;;;;12.92;100.00;102376.81;5072797;28;20024;-71
2022/09/20 08:27:54;;;;;;;5.13;0.85;;;;;;;12.87;100.00;102371.38;5070276;28;20027;-72
2022/09/20 08:30:20;;;;;;;5.25;0.88;;;;;;;12.91;100.00;102383.84;5074105;28;20028;-71
2022/09/20 08:32:46;;;;;;;7.50;0.90;;;;;;;12.93;100.00;102383.91;5072930;28;20369;-71
2022/09/20 08:35:13;;;;;;;5.00;0.77;;;;;;;12.97;100.00;102391.09;5072747;28;20016;-71
2022/09/20 08:37:38;;;;;;;7.43;1.00;;;;;;;12.97;100.00;102384.03;5071631;28;20032;-72
2022/09/20 08:40:04;;;;;;;6.32;1.00;;;;;;;12.97;100.00;102385.78;5069079;28;20029;-72
2022/09/20 08:42:35;;;;;;;7.72;1.73;;;;;;;13.10;100.00;102387.06;5074092;28;20107;-71
2022/09/20 08:45:23;;;;;;;4.55;1.10;;;;;;;13.24;100.00;102395.41;5073572;28;20047;-72
2022/09/20 08:48:01;;;;;;;10.80;1.40;;;;;;;13.42;100.00;102385.44;5074305;28;20447;-72
2022/09/20 08:50:27;;;;;;;2.35;0.82;;;;;;;13.62;100.00;102393.94;5069107;28;20139;-71
2022/09/20 08:52:56;;;;;;;8.88;0.93;;;;;;;13.78;100.00;102394.38;5072217;28;20081;-71
2022/09/20 08:55:26;;;;;;;12.27;1.75;;;;;;;13.81;100.00;102405.94;5070331;28;20115;-70
2022/09/20 08:57:55;;;;;;;3.00;0.90;;;;;;;13.90;100.00;102393.84;5054568;28;20040;-71
2022/09/20 09:00:27;;;;;;;5.57;0.73;;;;;;;14.00;100.00;102401.19;5073241;28;20043;-69
2022/09/20 09:02:54;;;;;;;5.70;1.20;;;;;;;13.96;100.00;102405.50;5082369;28;20498;-70
2022/09/20 09:05:25;;;;;;;6.32;1.45;;;;;;;14.15;100.00;102398.06;5079285;28;20032;-70
2022/09/20 09:07:51;;;;;;;3.20;1.15;;;;;;;14.31;100.00;102402.91;5085239;28;20150;-73
2022/09/20 09:10:16;;;;;;;5.18;0.85;;;;;;;14.52;100.00;102400.78;5072647;28;20036;-70
2022/09/20 09:12:45;;;;;;;4.63;0.77;;;;;;;14.66;100.00;102395.00;5055261;28;20032;-71
2022/09/20 09:15:55;;;;;;;5.30;0.90;;;;;;;14.88;100.00;102405.19;5068824;28;20032;-71
2022/09/20 09:18:29;;;;;;;11.60;1.67;;;;;;;15.09;100.00;102411.00;4977383;28;20293;-71
2022/09/20 09:20:57;;;;;;;3.95;1.20;;;;;;;15.03;100.00;102407.31;4981195;28;20128;-70
2022/09/20 09:23:26;;;;;;;2.80;0.88;;;;;;;15.17;100.00;102408.53;5024110;28;20365;-70
2022/09/20 09:25:53;;;;;;;4.10;0.93;;;;;;;15.18;100.00;102408.56;5071911;28;20483;-71
2022/09/20 09:28:23;;;;;;;3.10;0.88;;;;;;;15.30;100.00;102415.00;5073374;28;20013;-70
2022/09/20 09:30:49;;;;;;;3.17;0.82;;;;;;;15.36;100.00;102404.53;5072699;28;20039;-70
2022/09/20 09:33:27;;;;;;;4.78;0.70;;;;;;;15.66;100.00;102414.00;5070842;28;20033;-70
2022/09/20 09:36:06;;;;;;;5.30;0.80;;;;;;;15.75;100.00;102414.19;5065685;28;20078;-71
2022/09/20 09:38:37;;;;;;;11.57;1.10;;;;;;;15.99;100.00;102408.53;5071760;28;20025;-70
2022/09/20 09:41:23;;;;;;;4.57;0.65;;;;;;;16.11;100.00;102417.56;5072557;28;20055;-69
2022/09/20 09:44:06;;;;;;;4.10;0.80;;;;;;;16.38;100.00;102416.31;5072787;28;20483;-71
2022/09/20 09:46:36;;;;;;;9.38;1.05;;;;;;;16.54;100.00;102418.34;5060784;28;20021;-70
2022/09/20 09:49:14;;;;;;;6.68;1.20;;;;;;;16.21;100.00;102415.97;5072756;28;20063;-70
2022/09/20 09:51:42;;;;;;;5.75;1.30;;;;;;;16.30;100.00;102414.38;5062557;28;20051;-71
2022/09/20 09:54:16;;;;;;;6.50;1.17;;;;;;;16.52;100.00;102405.03;5050445;28;20452;-71
2022/09/20 09:56:57;;;;;;;6.28;1.27;;;;;;;16.89;100.00;102409.16;5070448;28;20040;-70
2022/09/20 09:59:48;;;;;;;3.20;0.88;;;;;;;16.93;100.00;102405.69;5072670;28;20041;-70
2022/09/20 10:02:22;;;;;;;7.20;1.67;;;;;;;16.91;100.00;102418.09;5069292;28;20380;-70
2022/09/20 10:05:16;;;;;;;6.95;0.95;;;;;;;16.81;100.00;102431.19;5069545;28;20048;-70
2022/09/20 10:08:20;;;;;;;7.10;1.33;;;;;;;16.44;100.00;102435.91;5070439;28;20020;-71
2022/09/20 10:11:05;;;;;;;9.70;1.50;;;;;;;15.89;100.00;102433.09;5033081;28;20059;-72
2022/09/20 10:14:16;;;;;;;8.27;1.33;;;;;;;15.70;100.00;102434.44;5063744;28;20488;-71
2022/09/20 10:17:06;;;;;;;7.03;1.48;;;;;;;15.39;100.00;102433.78;5020502;28;20034;-71
2022/09/20 10:19:57;;;;;;;8.65;1.50;;;;;;;15.31;100.00;102432.72;5068232;28;20040;-70
2022/09/20 10:22:45;;;;;;;4.57;1.38;;;;;;;15.14;100.00;102435.88;5069097;28;20032;-71
2022/09/20 10:25:17;;;;;;;9.65;1.42;;;;;;;14.79;100.00;102433.28;5049663;28;20044;-70
2022/09/20 10:28:09;;;;;;;8.80;1.80;;;;;;;14.87;100.00;102425.50;5072748;28;20111;-71
2022/09/20 10:30:53;;;;;;;6.35;1.60;;;;;;;14.90;100.00;102430.88;5072351;28;20059;-71
2022/09/20 10:33:31;;;;;;;5.15;1.88;;;;;;;14.93;100.00;102425.66;5067924;28;20051;-70
2022/09/20 10:36:19;;;;;;;6.55;1.30;;;;;;;15.16;100.00;102426.19;5072508;28;20022;-71
2022/09/20 10:38:53;;;;;;;10.23;1.40;;;;;;;15.63;100.00;102435.19;5070680;28;20057;-71
2022/09/20 10:44:52;;;;;;;6.82;1.50;;;;;;;16.51;100.00;102429.81;5059421;28;20047;-70
2022/09/20 10:47:24;;;;;;;5.30;1.27;;;;;;;16.93;100.00;102434.94;5067068;28;20357;-70
2022/09/20 10:50:19;;;;;;;4.28;1.10;;;;;;;17.05;100.00;102431.59;5072467;28;20028;-71
2022/09/20 10:53:17;;;;;;;6.68;1.40;;;;;;;17.18;100.00;102426.47;5051712;28;20064;-71
2022/09/20 10:55:50;;;;;;;8.10;1.27;;;;;;;17.38;100.00;102431.19;5071116;28;20016;-71
2022/09/20 10:58:44;;;;;;;2.45;0.73;;;;;;;17.77;100.00;102424.59;5071592;28;20093;-71
2022/09/20 11:01:10;;;;;;;;;;;;;;;18.07;100.00;102427.63;5053750;28;20032;-71
2022/09/20 11:03:54;;;;;;;6.88;0.82;;;;;;;18.27;100.00;102430.50;5054204;28;19961;-72
2022/09/20 11:06:38;;;;;;;10.63;1.20;;;;;;;18.37;99.89;102427.94;5069322;28;20091;-72
2022/09/20 11:09:09;;;;;;;4.55;1.02;;;;;;;18.62;100.00;102427.28;5056628;28;20111;-72
2022/09/20 11:12:00;;;;;;;;;;;;;;;;;;;;;
2022/09/20 11:14:40;;;;;;;2.85;0.80;;;;;;;19.10;98.37;102435.66;4983386;28;20026;-72
2022/09/20 11:17:23;;;;;;;;;;;;;;;19.39;90.97;102422.50;5056657;28;20629;-73
2022/09/20 11:20:16;;;;;;;5.90;1.02;;;;;;;18.80;99.29;102434.50;5056021;28;19921;-72
2022/09/20 11:22:51;;;;;;;4.15;0.80;;;;;;;18.20;96.02;102426.88;5038918;28;20427;-73
2022/09/20 11:25:23;;;;;;;4.60;0.60;;;;;;;17.76;98.32;102438.78;5056609;28;20055;-71
2022/09/20 11:28:01;;;;;;;6.05;1.20;;;;;;;17.07;100.00;102444.03;5056137;28;20024;-71
2022/09/20 11:30:29;;;;;;;7.55;0.93;;;;;;;16.88;100.00;102439.28;5039576;28;20358;-71
2022/09/20 11:33:12;;;;;;;2.83;0.80;;;;;;;16.36;100.00;102445.50;5036006;28;20078;-72
2022/09/20 11:35:44;;;;;;;6.78;0.73;;;;;;;15.99;100.00;102442.13;5051846;28;20645;-72
2022/09/20 11:38:30;;;;;;;14.05;1.15;;;;;;;15.89;100.00;102442.81;5061842;28;20041;-72
2022/09/20 11:41:07;;;;;;;4.80;0.75;;;;;;;15.81;100.00;102440.88;5051044;28;20033;-72
2022/09/20 11:43:34;;;;;;;4.85;0.60;;;;;;;16.01;100.00;102443.06;5051906;28;20021;-72
2022/09/20 11:46:06;;;;;;;3.13;0.50;;;;;;;16.33;100.00;102448.06;5052560;28;20029;-72
2022/09/20 11:48:38;;;;;;;7.90;0.60;;;;;;;16.46;100.00;102434.16;5056982;28;20026;-72
2022/09/20 11:51:03;;;;;;;4.03;0.70;;;;;;;16.40;100.00;102442.03;5055119;28;20025;-72
2022/09/20 11:53:42;;;;;;;5.57;0.73;;;;;;;16.46;100.00;102447.44;5054830;28;20100;-72
2022/09/20 11:56:29;;;;;;;5.10;0.82;;;;;;;16.50;100.00;102449.28;5043642;28;20056;-72
2022/09/20 11:59:00;;;;;;;6.68;0.93;;;;;;;16.44;100.00;102449.19;5051888;28;20021;-72
2022/09/20 12:01:31;;;;;;;5.47;0.65;;;;;;;16.37;100.00;102452.59;5055280;28;20112;-72
2022/09/20 12:04:09;;;;;;;3.17;0.80;;;;;;;16.32;100.00;102454.28;5056805;28;20050;-71
2022/09/20 12:06:37;;;;;;;5.95;0.98;;;;;;;16.06;100.00;102451.09;5054355;28;20075;-71
2022/09/20 12:09:23;;;;;;;4.63;2.08;;;;;;;16.08;100.00;102454.72;5058729;28;20033;-71
2022/09/20 12:11:51;;;;;;;7.10;0.95;;;;;;;16.01;100.00;102464.31;5062756;28;20048;-71
2022/09/20 12:14:18;;;;;;;2.70;0.70;;;;;;;15.89;100.00;102458.75;5058468;28;20448;-71
2022/09/20 12:16:46;;;;;;;5.70;1.35;;;;;;;15.91;100.00;102457.00;5054880;28;20442;-71
2022/09/20 12:19:33;;;;;;;9.32;1.10;;;;;;;15.85;100.00;102458.66;5036712;28;20057;-71